Time;durP1;ratioP1;P1;durP2;ratioP2;P2;SDS_P1;SDS_P2;PMS_P1;PMS_P2;Temp;Humidity;BMP_temperature;BMP_pressure;BME280_temperature;BME280_humidity;BME280_pressure;Samples;Min_cycle;Max_cycle;Signal;HPM_P1;HPM_P2
2024/01/21 00:03:12;;;;;;;11.50;5.83;;;-2.90;1.00;;;;;;8394694;28;20191;-64
2024/01/21 00:07:13;;;;;;;13.13;6.00;;;-2.90;1.00;;;;;;8396164;28;20183;-64
2024/01/21 00:11:13;;;;;;;13.67;6.23;;;-3.00;1.00;;;;;;8395682;28;20199;-64
2024/01/21 00:15:15;;;;;;;11.20;6.30;;;-2.90;1.00;;;;;;8393140;28;20246;-64
2024/01/21 00:19:15;;;;;;;17.30;6.53;;;-2.90;1.00;;;;;;8394307;28;20181;-64
2024/01/21 00:23:19;;;;;;;11.27;6.70;;;-3.00;1.00;;;;;;8409921;28;20190;-64
2024/01/21 00:27:23;;;;;;;13.20;5.73;;;-3.00;1.00;;;;;;8412461;28;20190;-64
2024/01/21 00:31:24;;;;;;;12.60;6.53;;;-3.00;1.00;;;;;;8408940;28;20191;-65
2024/01/21 00:35:25;;;;;;;11.97;6.03;;;-3.10;1.00;;;;;;8392304;28;20609;-64
2024/01/21 00:39:26;;;;;;;12.37;5.73;;;-3.10;1.00;;;;;;8394970;28;20196;-64
2024/01/21 00:43:26;;;;;;;10.37;5.43;;;-3.20;1.00;;;;;;8392089;28;20192;-64
2024/01/21 00:47:27;;;;;;;11.27;5.60;;;-3.20;1.00;;;;;;8394656;28;20277;-62
2024/01/21 00:51:28;;;;;;;10.97;5.37;;;-3.10;1.00;;;;;;8393220;28;20229;-65
2024/01/21 00:55:28;;;;;;;10.00;5.53;;;-3.00;1.00;;;;;;8393887;28;20221;-65
2024/01/21 00:59:29;;;;;;;8.40;5.20;;;-3.10;1.00;;;;;;8393187;28;20300;-64
2024/01/21 01:03:30;;;;;;;11.60;5.43;;;-3.10;1.00;;;;;;8396188;28;20356;-64
2024/01/21 01:07:30;;;;;;;11.37;5.07;;;-3.10;1.00;;;;;;8393162;28;20723;-64
2024/01/21 01:11:35;;;;;;;9.27;4.50;;;-3.20;1.00;;;;;;8396290;28;20195;-63
2024/01/21 01:15:35;;;;;;;11.10;4.77;;;-3.20;1.00;;;;;;8393469;28;21767;-63
2024/01/21 01:19:36;;;;;;;10.70;4.27;;;-3.20;1.00;;;;;;8392069;28;20184;-63
2024/01/21 01:23:37;;;;;;;12.23;4.53;;;-3.20;1.00;;;;;;8392042;28;20187;-64
2024/01/21 01:27:38;;;;;;;8.93;4.37;;;-3.30;1.00;;;;;;8389315;28;20222;-64
2024/01/21 01:31:39;;;;;;;10.43;4.80;;;-3.40;1.00;;;;;;8395662;28;20188;-64
2024/01/21 01:35:39;;;;;;;8.60;4.23;;;-3.50;1.00;;;;;;8411095;28;20216;-63
2024/01/21 01:39:40;;;;;;;8.37;4.53;;;-3.60;1.00;;;;;;8415823;28;20330;-63
2024/01/21 01:43:42;;;;;;;9.07;3.87;;;-3.70;1.00;;;;;;8412054;28;20180;-63
2024/01/21 01:47:42;;;;;;;10.20;4.27;;;-3.70;1.00;;;;;;8407807;28;20168;-63
2024/01/21 01:51:44;;;;;;;9.80;4.63;;;-3.70;1.00;;;;;;8406902;28;20191;-63
2024/01/21 01:55:45;;;;;;;6.97;4.03;;;-3.70;1.00;;;;;;8413218;28;20200;-64
2024/01/21 01:59:46;;;;;;;9.03;3.93;;;-3.70;1.00;;;;;;8409646;28;20192;-64
2024/01/21 02:03:47;;;;;;;9.53;4.33;;;-3.60;1.00;;;;;;8412922;28;20176;-64
2024/01/21 02:07:48;;;;;;;11.73;5.23;;;-3.60;1.00;;;;;;8412760;28;20211;-64
2024/01/21 02:11:49;;;;;;;10.50;5.33;;;-3.50;1.00;;;;;;8416616;28;20173;-64
2024/01/21 02:15:49;;;;;;;7.07;3.83;;;-3.50;1.00;;;;;;8416530;28;20203;-65
2024/01/21 02:19:50;;;;;;;9.90;4.50;;;-3.50;1.00;;;;;;8423061;28;20218;-63
2024/01/21 02:23:51;;;;;;;13.50;5.00;;;-3.50;1.00;;;;;;8416699;28;20204;-64
2024/01/21 02:27:52;;;;;;;10.80;4.23;;;-3.60;1.00;;;;;;8414871;28;20176;-64
2024/01/21 02:31:53;;;;;;;11.37;4.60;;;-3.70;1.00;;;;;;8418453;28;20169;-63
2024/01/21 02:35:54;;;;;;;10.73;4.77;;;-3.70;1.00;;;;;;8425336;28;20209;-65
2024/01/21 02:39:55;;;;;;;13.00;4.60;;;-3.80;1.00;;;;;;8420293;28;20188;-64
2024/01/21 02:43:55;;;;;;;9.27;3.93;;;-4.00;1.00;;;;;;8417897;28;20177;-64
2024/01/21 02:47:56;;;;;;;10.10;4.70;;;-4.20;1.00;;;;;;8417655;28;20214;-64
2024/01/21 02:51:58;;;;;;;9.70;4.67;;;-4.20;1.00;;;;;;8414540;28;20181;-65
2024/01/21 02:55:58;;;;;;;10.33;3.53;;;-4.30;1.00;;;;;;8413249;28;20205;-64
2024/01/21 02:59:59;;;;;;;5.13;3.00;;;-4.50;1.00;;;;;;8411053;28;20197;-64
2024/01/21 03:04:00;;;;;;;8.00;3.03;;;-4.60;1.00;;;;;;8397396;28;20184;-65
2024/01/21 03:08:01;;;;;;;8.30;3.47;;;-4.80;1.00;;;;;;8394713;28;20235;-65
2024/01/21 03:12:02;;;;;;;7.50;3.20;;;-5.00;1.00;;;;;;8402881;28;20243;-63
2024/01/21 03:16:02;;;;;;;6.93;3.40;;;-5.20;1.00;;;;;;8414885;28;20192;-65
2024/01/21 03:20:05;;;;;;;5.27;3.47;;;-5.50;1.00;;;;;;8413563;28;20188;-63
2024/01/21 03:24:06;;;;;;;7.73;3.10;;;-5.60;1.00;;;;;;8395863;28;20181;-64
2024/01/21 03:28:06;;;;;;;8.20;3.27;;;-5.70;1.00;;;;;;8395499;28;20192;-65
2024/01/21 03:32:07;;;;;;;3.77;2.50;;;-5.80;9.00;;;;;;8393812;28;20280;-65
2024/01/21 03:36:10;;;;;;;5.50;3.20;;;-5.90;23.80;;;;;;8396249;28;20294;-65
2024/01/21 03:40:10;;;;;;;4.77;2.90;;;-6.00;36.70;;;;;;8399517;28;20210;-65
2024/01/21 03:44:11;;;;;;;5.53;2.93;;;-6.10;64.40;;;;;;8394748;28;20303;-65
2024/01/21 03:48:12;;;;;;;9.10;3.77;;;-6.10;93.80;;;;;;8401253;28;20859;-65
2024/01/21 03:52:13;;;;;;;6.77;3.53;;;-6.20;99.10;;;;;;8396338;28;20648;-66
2024/01/21 03:56:18;;;;;;;4.93;3.37;;;-6.30;99.90;;;;;;8398128;28;20216;-67
2024/01/21 04:00:19;;;;;;;6.80;3.40;;;-6.50;99.90;;;;;;8396578;28;20203;-66
2024/01/21 04:04:19;;;;;;;5.47;3.30;;;-6.60;99.90;;;;;;8392529;28;20197;-67
2024/01/21 04:08:21;;;;;;;4.67;3.03;;;-6.70;99.90;;;;;;8398245;28;20218;-67
2024/01/21 04:12:22;;;;;;;6.00;3.27;;;-6.90;99.90;;;;;;8393087;28;20207;-67
2024/01/21 04:16:22;;;;;;;4.67;3.47;;;-7.10;99.90;;;;;;8391810;28;20222;-66
2024/01/21 04:20:23;;;;;;;5.90;2.83;;;-7.20;99.90;;;;;;8392288;28;20192;-66
2024/01/21 04:24:24;;;;;;;4.60;2.53;;;-7.30;99.90;;;;;;8395988;28;20183;-66
2024/01/21 04:28:24;;;;;;;4.63;2.30;;;-7.30;99.90;;;;;;8394735;28;20273;-66
2024/01/21 04:32:25;;;;;;;3.50;2.30;;;-7.30;99.90;;;;;;8396850;28;20181;-64
2024/01/21 04:36:26;;;;;;;3.27;1.87;;;-7.40;99.90;;;;;;8398086;28;20229;-65
2024/01/21 04:40:26;;;;;;;5.53;2.60;;;-7.50;99.90;;;;;;8395233;28;20177;-65
2024/01/21 04:44:27;;;;;;;6.53;2.40;;;-7.60;99.90;;;;;;8398178;28;20189;-66
2024/01/21 04:48:28;;;;;;;5.67;2.90;;;-7.60;99.90;;;;;;8397188;28;20249;-65
2024/01/21 04:52:29;;;;;;;10.43;4.40;;;-7.70;99.90;;;;;;8395880;28;20194;-64
2024/01/21 04:56:29;;;;;;;8.73;5.27;;;-7.60;99.90;;;;;;8395604;28;20213;-65
2024/01/21 05:00:30;;;;;;;4.73;3.23;;;-7.80;99.90;;;;;;8393384;28;20228;-66
2024/01/21 05:04:33;;;;;;;4.93;3.17;;;-7.90;99.90;;;;;;8395387;28;20192;-65
2024/01/21 05:08:34;;;;;;;5.93;2.47;;;-8.00;99.90;;;;;;8391045;28;20185;-65
2024/01/21 05:12:36;;;;;;;4.13;2.30;;;-8.00;99.90;;;;;;8396684;28;20212;-65
2024/01/21 05:16:41;;;;;;;14.83;6.37;;;-8.10;1.00;;;;;;8389645;28;20208;-66
2024/01/21 05:20:42;;;;;;;13.23;6.00;;;-8.00;1.00;;;;;;8391872;28;20189;-66
2024/01/21 05:24:42;;;;;;;8.67;4.17;;;-7.90;99.90;;;;;;8394797;28;20187;-66
2024/01/21 05:28:44;;;;;;;15.20;6.27;;;-7.80;99.90;;;;;;8394567;28;20216;-65
2024/01/21 05:32:46;;;;;;;14.33;6.03;;;-7.70;99.90;;;;;;8392539;28;20201;-65
2024/01/21 05:36:47;;;;;;;9.70;5.07;;;-7.60;99.90;;;;;;8390119;28;20237;-65
2024/01/21 05:40:47;;;;;;;11.07;5.93;;;-7.60;99.90;;;;;;8393050;28;20207;-67
2024/01/21 05:44:48;;;;;;;15.37;6.63;;;-7.50;99.90;;;;;;8391895;28;20186;-66
2024/01/21 05:48:49;;;;;;;15.50;5.73;;;-7.60;99.90;;;;;;8396907;28;20271;-67
2024/01/21 05:52:49;;;;;;;12.03;5.30;;;-7.60;56.10;;;;;;8389344;28;20199;-67
2024/01/21 05:56:50;;;;;;;13.87;5.70;;;-7.60;40.40;;;;;;8395495;28;20217;-66
2024/01/21 06:00:51;;;;;;;13.57;5.53;;;-7.70;42.10;;;;;;8395844;28;20216;-67
2024/01/21 06:04:51;;;;;;;11.73;5.20;;;-7.70;80.90;;;;;;8392888;28;20198;-67
2024/01/21 06:08:52;;;;;;;6.77;4.17;;;-7.70;53.80;;;;;;8393867;28;20205;-66
2024/01/21 06:12:53;;;;;;;16.23;6.17;;;-7.80;2.60;;;;;;8401578;28;20505;-66
2024/01/21 06:16:54;;;;;;;16.50;8.10;;;-7.90;1.00;;;;;;8398382;28;20211;-66
2024/01/21 06:20:55;;;;;;;20.70;10.57;;;-7.90;1.00;;;;;;8421457;28;20284;-66
2024/01/21 06:24:56;;;;;;;20.37;8.80;;;-8.10;1.00;;;;;;8400922;28;20275;-66
2024/01/21 06:28:57;;;;;;;13.23;5.80;;;-8.20;1.00;;;;;;8397554;28;20331;-66
2024/01/21 06:32:57;;;;;;;8.83;4.33;;;-8.40;1.00;;;;;;8397613;28;20201;-66
2024/01/21 06:36:58;;;;;;;8.70;4.27;;;-8.60;1.00;;;;;;8400079;28;20208;-66
2024/01/21 06:40:59;;;;;;;10.30;5.70;;;-8.70;2.20;;;;;;8393892;28;20570;-66
2024/01/21 06:45:00;;;;;;;9.53;5.17;;;-8.70;99.90;;;;;;8402438;28;20231;-66
2024/01/21 06:49:00;;;;;;;12.10;7.20;;;-8.70;99.90;;;;;;8401756;28;20360;-66
2024/01/21 06:53:01;;;;;;;11.57;5.97;;;-8.70;99.90;;;;;;8396288;28;20204;-66
2024/01/21 06:57:02;;;;;;;9.63;4.73;;;-8.80;99.90;;;;;;8398502;28;20222;-66
2024/01/21 07:01:03;;;;;;;9.70;4.77;;;-8.90;99.90;;;;;;8398066;28;20201;-66
2024/01/21 07:05:04;;;;;;;9.47;4.63;;;-9.10;99.90;;;;;;8392366;28;20192;-63
2024/01/21 07:09:05;;;;;;;10.83;4.83;;;-9.10;99.90;;;;;;8394682;28;20223;-63
2024/01/21 07:13:05;;;;;;;12.63;5.70;;;-9.10;99.90;;;;;;8394793;28;20279;-63
2024/01/21 07:17:06;;;;;;;13.77;6.37;;;-8.90;1.00;;;;;;8404911;28;20296;-63
2024/01/21 07:21:07;;;;;;;9.53;5.97;;;-8.80;1.00;;;;;;8395613;28;20180;-63
2024/01/21 07:25:08;;;;;;;17.80;8.47;;;-8.80;1.00;;;;;;8397984;28;20285;-63
2024/01/21 07:29:08;;;;;;;27.70;11.93;;;-8.80;1.00;;;;;;8395283;28;20200;-63
2024/01/21 07:33:10;;;;;;;44.33;15.70;;;-8.70;1.00;;;;;;8393280;28;20561;-63
2024/01/21 07:37:11;;;;;;;25.10;10.27;;;-8.70;1.00;;;;;;8397022;28;20216;-63
2024/01/21 07:41:12;;;;;;;27.70;8.47;;;-8.60;1.00;;;;;;8390899;28;20192;-63
2024/01/21 07:45:13;;;;;;;17.07;7.57;;;-8.60;1.00;;;;;;8394511;28;20195;-63
2024/01/21 07:49:13;;;;;;;14.90;6.97;;;-8.60;1.00;;;;;;8395728;28;20197;-63
2024/01/21 07:53:14;;;;;;;12.43;6.27;;;-8.50;1.00;;;;;;8394740;28;20201;-63
2024/01/21 07:57:15;;;;;;;8.63;5.53;;;-8.40;1.00;;;;;;8392716;28;20216;-63
2024/01/21 08:01:20;;;;;;;27.03;11.93;;;-8.30;99.90;;;;;;8394925;28;20204;-63
2024/01/21 08:05:21;;;;;;;38.33;18.73;;;-8.00;99.90;;;;;;8397095;28;20295;-63
2024/01/21 08:09:22;;;;;;;42.07;20.20;;;-7.60;99.90;;;;;;8395522;28;20204;-63
2024/01/21 08:13:22;;;;;;;35.97;12.93;;;-7.30;1.40;;;;;;8391883;28;20198;-63
2024/01/21 08:17:23;;;;;;;45.70;20.30;;;-7.30;1.00;;;;;;8394072;28;20216;-64
2024/01/21 08:21:24;;;;;;;36.47;16.40;;;-7.30;1.00;;;;;;8391766;28;20265;-66
2024/01/21 08:25:25;;;;;;;56.20;23.30;;;-7.00;1.50;;;;;;8393463;28;20240;-67
2024/01/21 08:29:27;;;;;;;65.17;26.73;;;-6.50;94.80;;;;;;8387847;28;20200;-66
2024/01/21 08:33:29;;;;;;;48.70;21.17;;;-6.10;8.90;;;;;;8391379;28;20231;-65
2024/01/21 08:37:29;;;;;;;40.37;18.80;;;-5.70;1.00;;;;;;8390041;28;20323;-65
2024/01/21 08:41:30;;;;;;;76.37;32.73;;;-5.50;99.90;;;;;;8394659;28;20192;-65
2024/01/21 08:45:30;;;;;;;101.10;47.50;;;-5.30;99.90;;;;;;8392965;28;20202;-65
2024/01/21 08:49:31;;;;;;;96.60;44.07;;;-5.10;99.90;;;;;;8391826;28;20192;-64
2024/01/21 08:53:32;;;;;;;84.53;40.13;;;-4.80;99.90;;;;;;8400574;28;20192;-64
2024/01/21 08:57:32;;;;;;;89.23;41.33;;;-4.40;99.90;;;;;;8392558;28;20645;-64
2024/01/21 09:01:33;;;;;;;134.30;62.40;;;-3.80;99.90;;;;;;8390187;28;20205;-65
2024/01/21 09:05:34;;;;;;;116.70;59.10;;;-3.10;99.90;;;;;;8392745;28;20193;-65
2024/01/21 09:09:35;;;;;;;148.60;71.70;;;-2.20;99.90;;;;;;8392156;28;20195;-65
2024/01/21 09:13:36;;;;;;;149.17;69.87;;;-1.50;12.10;;;;;;8393773;28;20186;-65
2024/01/21 09:17:36;;;;;;;150.73;70.17;;;-1.00;1.00;;;;;;8395053;28;20240;-66
2024/01/21 09:21:37;;;;;;;53.23;28.93;;;-0.80;1.00;;;;;;8392170;28;20185;-65
2024/01/21 09:25:38;;;;;;;23.23;12.27;;;-0.70;1.00;;;;;;8385101;28;20728;-65
2024/01/21 09:29:39;;;;;;;17.83;10.57;;;-0.70;1.00;;;;;;8393196;28;20188;-66
2024/01/21 09:33:40;;;;;;;19.63;9.97;;;-0.50;1.00;;;;;;8408005;28;20206;-64
2024/01/21 09:37:40;;;;;;;31.50;16.47;;;-0.20;1.00;;;;;;8392848;28;20240;-64
2024/01/21 09:41:46;;;;;;;59.57;30.73;;;0.10;1.00;;;;;;8392573;28;20206;-65
2024/01/21 09:45:47;;;;;;;30.93;17.10;;;0.30;1.00;;;;;;8409025;28;20189;-66
2024/01/21 09:49:49;;;;;;;21.63;14.30;;;0.50;1.00;;;;;;8387994;28;20190;-67
2024/01/21 09:53:50;;;;;;;28.67;17.73;;;0.60;1.00;;;;;;8389258;28;20181;-67
2024/01/21 09:57:51;;;;;;;23.63;14.43;;;0.70;1.00;;;;;;8395659;28;20212;-66
2024/01/21 10:01:52;;;;;;;23.33;13.90;;;0.90;1.00;;;;;;8391503;28;20254;-67
2024/01/21 10:05:53;;;;;;;23.83;13.37;;;1.00;1.00;;;;;;8395294;28;20193;-68
2024/01/21 10:09:55;;;;;;;17.90;11.37;;;1.20;1.00;;;;;;8392794;28;20196;-67
2024/01/21 10:13:57;;;;;;;27.07;15.60;;;1.30;1.00;;;;;;8391318;28;20196;-67
2024/01/21 10:17:58;;;;;;;29.93;16.07;;;1.60;1.00;;;;;;8401449;28;20227;-67
2024/01/21 10:22:16;;;;;;;24.07;14.30;;;1.70;1.00;;;;;;8396648;28;20182;-67
2024/01/21 10:26:17;;;;;;;44.70;23.70;;;1.90;1.00;;;;;;8410441;28;20253;-66
2024/01/21 10:30:18;;;;;;;33.30;20.67;;;2.10;1.00;;;;;;8400698;28;20194;-67
2024/01/21 10:34:19;;;;;;;27.30;16.93;;;2.20;1.00;;;;;;8399051;28;20196;-67
2024/01/21 10:38:21;;;;;;;26.73;14.73;;;2.40;1.00;;;;;;8399259;28;20190;-67
2024/01/21 10:42:22;;;;;;;27.33;13.73;;;2.70;1.00;;;;;;8420604;28;20213;-67
2024/01/21 10:46:26;;;;;;;22.67;13.33;;;2.90;1.00;;;;;;8402803;28;20189;-67
2024/01/21 10:50:27;;;;;;;22.83;11.97;;;3.00;1.00;;;;;;8394345;28;20265;-67
2024/01/21 10:54:29;;;;;;;18.20;11.23;;;3.10;1.00;;;;;;8404382;28;20227;-67
2024/01/21 10:58:29;;;;;;;27.00;15.77;;;3.20;1.00;;;;;;8402161;28;20201;-66
2024/01/21 11:02:31;;;;;;;23.80;14.73;;;3.30;1.00;;;;;;8408231;28;20200;-66
2024/01/21 11:06:33;;;;;;;36.60;21.23;;;3.40;1.00;;;;;;8407229;28;20193;-66
2024/01/21 11:10:37;;;;;;;38.27;20.30;;;3.60;1.00;;;;;;8415216;28;20181;-62
2024/01/21 11:14:40;;;;;;;21.33;13.10;;;3.80;1.00;;;;;;8391448;28;20657;-62
2024/01/21 11:18:44;;;;;;;19.47;11.07;;;4.00;1.00;;;;;;8391892;28;20269;-62
2024/01/21 11:22:45;;;;;;;19.13;12.20;;;4.10;1.00;;;;;;8393358;28;20203;-63
2024/01/21 11:26:47;;;;;;;25.40;13.47;;;4.00;1.00;;;;;;8393998;28;20191;-62
2024/01/21 11:30:53;;;;;;;23.47;14.27;;;3.90;1.00;;;;;;8393728;28;20181;-62
2024/01/21 11:34:54;;;;;;;27.77;17.00;;;3.80;1.00;;;;;;8402619;28;20220;-62
2024/01/21 11:38:55;;;;;;;31.50;18.73;;;3.90;1.00;;;;;;8390205;28;20199;-62
2024/01/21 11:42:56;;;;;;;33.23;20.63;;;4.00;1.00;;;;;;8410844;28;20189;-64
2024/01/21 11:46:59;;;;;;;31.93;18.90;;;3.90;1.00;;;;;;8393046;28;20241;-62
2024/01/21 11:51:00;;;;;;;28.03;15.13;;;4.00;1.00;;;;;;8409165;28;20195;-63
2024/01/21 11:55:01;;;;;;;29.37;15.43;;;4.00;1.00;;;;;;8392295;28;20434;-64
2024/01/21 11:59:06;;;;;;;29.57;17.57;;;3.90;1.00;;;;;;8395545;28;20242;-63
2024/01/21 12:03:07;;;;;;;33.37;18.67;;;3.70;1.00;;;;;;8400333;28;20184;-63
2024/01/21 12:07:09;;;;;;;37.67;21.03;;;3.40;1.00;;;;;;8392881;28;20575;-64
2024/01/21 12:11:13;;;;;;;38.20;20.90;;;3.10;1.00;;;;;;8388949;28;20317;-62
2024/01/21 12:15:14;;;;;;;32.87;19.80;;;3.00;1.00;;;;;;8392543;28;20216;-62
2024/01/21 12:19:16;;;;;;;35.07;20.80;;;2.90;1.00;;;;;;8391407;28;20177;-62
2024/01/21 12:23:23;;;;;;;35.17;19.77;;;2.90;1.00;;;;;;8393697;28;20245;-63
2024/01/21 12:27:24;;;;;;;32.33;19.80;;;2.80;1.00;;;;;;8404474;28;20196;-62
2024/01/21 12:31:35;;;;;;;29.97;17.40;;;2.80;1.00;;;;;;8391841;28;20173;-62
2024/01/21 12:35:36;;;;;;;35.40;20.77;;;2.80;1.00;;;;;;8391517;28;20244;-63
2024/01/21 12:39:39;;;;;;;30.63;19.17;;;2.80;1.00;;;;;;8390397;28;20180;-64
2024/01/21 12:43:42;;;;;;;32.97;18.63;;;2.70;1.00;;;;;;8391429;28;20188;-63
2024/01/21 12:47:43;;;;;;;99.50;43.50;;;2.90;1.00;;;;;;8390371;28;20188;-62
2024/01/21 12:51:45;;;;;;;71.37;34.37;;;3.10;1.00;;;;;;8391007;28;20195;-63
2024/01/21 12:55:46;;;;;;;60.20;32.20;;;3.20;1.00;;;;;;8391571;28;20209;-63
2024/01/21 12:59:46;;;;;;;50.67;27.33;;;3.30;1.00;;;;;;8388730;28;20291;-63
2024/01/21 13:03:47;;;;;;;36.63;20.97;;;3.30;1.00;;;;;;8402260;28;20261;-68
2024/01/21 13:07:48;;;;;;;36.20;20.83;;;3.30;1.00;;;;;;8406368;28;20661;-67
2024/01/21 13:11:49;;;;;;;33.93;19.57;;;3.20;1.00;;;;;;8401535;28;20188;-67
2024/01/21 13:15:50;;;;;;;29.27;17.60;;;3.20;1.00;;;;;;8405803;28;20216;-66
2024/01/21 13:19:51;;;;;;;38.20;21.63;;;3.20;1.00;;;;;;8405704;28;20199;-68
2024/01/21 13:23:52;;;;;;;36.53;20.53;;;3.20;1.00;;;;;;8406439;28;20216;-68
2024/01/21 13:28:06;;;;;;;31.90;18.03;;;3.00;1.00;;;;;;8406992;28;20237;-66
2024/01/21 13:32:07;;;;;;;31.83;17.97;;;2.90;1.00;;;;;;8405609;28;20189;-66
2024/01/21 13:36:08;;;;;;;30.87;17.63;;;3.00;1.00;;;;;;8403099;28;20218;-67
2024/01/21 13:40:15;;;;;;;29.77;17.70;;;3.10;1.00;;;;;;8406767;28;20201;-67
2024/01/21 13:44:15;;;;;;;31.07;16.70;;;3.10;1.00;;;;;;8408035;28;20185;-66
2024/01/21 13:48:20;;;;;;;34.00;20.77;;;3.00;1.00;;;;;;8402771;28;20176;-67
2024/01/21 13:52:21;;;;;;;34.23;19.20;;;2.80;1.00;;;;;;8413686;28;20280;-68
2024/01/21 13:56:22;;;;;;;36.60;20.40;;;2.60;1.00;;;;;;8401895;28;20228;-67
2024/01/21 14:00:24;;;;;;;34.50;21.13;;;2.40;1.00;;;;;;8405180;28;20200;-68
2024/01/21 14:04:26;;;;;;;26.33;16.20;;;2.30;1.00;;;;;;8399479;28;20600;-69
2024/01/21 14:08:26;;;;;;;30.83;18.60;;;2.20;1.00;;;;;;8417385;28;20270;-67
2024/01/21 14:12:28;;;;;;;25.73;16.97;;;2.10;1.00;;;;;;8401007;28;20188;-66
2024/01/21 14:16:28;;;;;;;36.40;19.70;;;2.10;1.00;;;;;;8399790;28;20212;-66
2024/01/21 14:20:30;;;;;;;34.73;20.50;;;2.10;1.00;;;;;;8398869;28;20184;-66
2024/01/21 14:24:34;;;;;;;37.10;21.87;;;2.10;1.00;;;;;;8401372;28;20198;-67
2024/01/21 14:28:40;;;;;;;39.57;21.80;;;2.00;1.00;;;;;;8403257;28;20321;-67
2024/01/21 14:32:41;;;;;;;36.03;21.70;;;2.00;1.00;;;;;;8415237;28;20282;-65
2024/01/21 14:36:43;;;;;;;31.43;18.53;;;1.90;1.00;;;;;;8413312;28;20210;-65
2024/01/21 14:40:44;;;;;;;34.17;19.77;;;1.70;1.00;;;;;;8406263;28;20199;-65
2024/01/21 14:44:46;;;;;;;28.93;17.17;;;1.60;1.00;;;;;;8410091;28;20239;-66
2024/01/21 14:48:46;;;;;;;51.80;24.70;;;1.40;1.00;;;;;;8409730;28;20197;-66
2024/01/21 14:52:48;;;;;;;31.27;19.03;;;1.30;1.00;;;;;;8410308;28;20188;-67
2024/01/21 14:56:49;;;;;;;35.50;18.73;;;1.10;1.00;;;;;;8402987;28;20213;-67
2024/01/21 15:00:53;;;;;;;31.00;17.33;;;0.90;1.00;;;;;;8406181;28;20204;-66
2024/01/21 15:04:53;;;;;;;32.17;17.03;;;0.70;1.00;;;;;;8424588;28;20185;-68
2024/01/21 15:08:54;;;;;;;29.43;17.47;;;0.60;1.00;;;;;;8409196;28;20288;-67
2024/01/21 15:12:55;;;;;;;33.93;17.93;;;0.50;1.00;;;;;;8410715;28;20217;-67
2024/01/21 15:16:56;;;;;;;38.33;19.77;;;0.50;1.00;;;;;;8406559;28;20219;-68
2024/01/21 15:20:57;;;;;;;35.23;18.33;;;0.40;1.00;;;;;;8413825;28;20269;-67
2024/01/21 15:24:58;;;;;;;31.77;17.03;;;0.30;1.00;;;;;;8409542;28;20185;-67
2024/01/21 15:28:59;;;;;;;33.00;16.90;;;0.30;1.00;;;;;;8404921;28;20197;-66
2024/01/21 15:33:00;;;;;;;29.10;17.40;;;0.20;1.00;;;;;;8400598;28;20244;-62
2024/01/21 15:37:00;;;;;;;34.67;17.67;;;0.10;1.00;;;;;;8394613;28;20299;-62
2024/01/21 15:41:01;;;;;;;35.23;17.50;;;0.10;1.00;;;;;;8394513;28;20192;-65
2024/01/21 15:45:09;;;;;;;47.70;23.47;;;0.00;1.00;;;;;;8405939;28;20357;-67
2024/01/21 15:49:11;;;;;;;44.63;25.80;;;-0.10;1.00;;;;;;8399948;28;20193;-67
2024/01/21 15:53:11;;;;;;;55.03;27.90;;;-0.20;1.00;;;;;;8403612;28;20270;-64
2024/01/21 15:57:12;;;;;;;44.53;24.97;;;-0.20;1.00;;;;;;8412263;28;20205;-64
2024/01/21 16:01:13;;;;;;;39.10;21.90;;;-0.20;1.00;;;;;;8416213;28;20204;-63
2024/01/21 16:05:14;;;;;;;35.90;18.83;;;-0.20;1.00;;;;;;8414974;28;20192;-63
2024/01/21 16:09:15;;;;;;;62.50;31.90;;;-0.30;1.00;;;;;;8417273;28;20181;-63
2024/01/21 16:13:16;;;;;;;62.10;31.07;;;-0.50;1.00;;;;;;8411701;28;20187;-64
2024/01/21 16:17:17;;;;;;;48.13;24.60;;;-0.70;1.00;;;;;;8419386;28;20216;-64
2024/01/21 16:21:18;;;;;;;38.07;20.77;;;-1.10;1.00;;;;;;8410239;28;20176;-64
2024/01/21 16:25:20;;;;;;;29.13;15.67;;;-1.40;1.00;;;;;;8399927;28;20215;-62
2024/01/21 16:29:21;;;;;;;113.17;57.93;;;-1.70;1.00;;;;;;8420269;28;20184;-62
2024/01/21 16:33:23;;;;;;;44.37;20.80;;;-2.00;1.00;;;;;;8414040;28;20205;-63
2024/01/21 16:37:23;;;;;;;35.83;18.53;;;-2.30;1.00;;;;;;8414224;28;20218;-63
2024/01/21 16:41:24;;;;;;;36.03;18.77;;;-2.60;1.00;;;;;;8410029;28;20193;-61
2024/01/21 16:45:30;;;;;;;35.47;16.83;;;-2.90;1.00;;;;;;8392236;28;20568;-63
2024/01/21 16:49:31;;;;;;;32.43;15.87;;;-3.10;1.00;;;;;;8406320;28;20191;-62
2024/01/21 16:53:32;;;;;;;26.03;13.13;;;-3.30;1.00;;;;;;8409668;28;20221;-62
2024/01/21 16:57:33;;;;;;;46.03;19.27;;;-3.40;1.00;;;;;;8424888;28;20242;-63
2024/01/21 17:01:40;;;;;;;53.53;20.90;;;-3.50;1.00;;;;;;8410635;28;20209;-63
2024/01/21 17:05:43;;;;;;;37.03;17.47;;;-3.60;1.00;;;;;;8422211;28;20186;-64
2024/01/21 17:09:45;;;;;;;37.57;15.90;;;-3.60;2.30;;;;;;8415737;28;20177;-63
2024/01/21 17:13:46;;;;;;;29.60;14.83;;;-3.70;3.70;;;;;;8419432;28;20189;-62
2024/01/21 17:17:52;;;;;;;27.30;15.63;;;-3.90;8.00;;;;;;8419003;28;20208;-63
2024/01/21 17:21:54;;;;;;;33.20;17.50;;;-4.00;13.80;;;;;;8410851;28;20193;-63
2024/01/21 17:25:54;;;;;;;46.27;20.77;;;-4.10;23.10;;;;;;8414977;28;20213;-62
2024/01/21 17:29:55;;;;;;;42.13;19.27;;;-4.30;40.80;;;;;;8415942;28;20196;-63
2024/01/21 17:33:57;;;;;;;33.43;15.67;;;-4.30;78.60;;;;;;8418248;28;20203;-63
2024/01/21 17:37:58;;;;;;;39.67;18.77;;;-4.40;91.50;;;;;;8413376;28;20212;-63
2024/01/21 17:42:07;;;;;;;29.93;16.37;;;-4.40;99.90;;;;;;8406155;28;20176;-64
2024/01/21 17:46:12;;;;;;;28.50;14.97;;;-4.40;99.90;;;;;;8402369;28;20185;-64
2024/01/21 17:50:13;;;;;;;23.30;13.17;;;-4.50;99.90;;;;;;8412660;28;20291;-64
2024/01/21 17:54:14;;;;;;;21.23;10.50;;;-4.40;99.90;;;;;;8394607;28;20184;-63
2024/01/21 17:58:15;;;;;;;51.13;22.13;;;-4.30;99.90;;;;;;8394201;28;20381;-65
2024/01/21 18:02:16;;;;;;;49.37;25.50;;;-4.30;82.30;;;;;;8389030;28;20181;-63
2024/01/21 18:06:19;;;;;;;110.60;37.53;;;-4.30;54.30;;;;;;8391761;28;20191;-63
2024/01/21 18:10:19;;;;;;;177.13;56.63;;;-4.40;37.50;;;;;;8396445;28;20270;-63
2024/01/21 18:14:20;;;;;;;124.37;43.17;;;-4.40;33.40;;;;;;8395884;28;20191;-63
2024/01/21 18:18:23;;;;;;;91.33;36.27;;;-4.50;24.60;;;;;;8398748;28;20208;-63
2024/01/21 18:22:24;;;;;;;62.50;28.30;;;-4.50;29.80;;;;;;8396991;28;20209;-63
2024/01/21 18:26:25;;;;;;;43.23;22.97;;;-4.60;35.60;;;;;;8401008;28;20189;-63
2024/01/21 18:30:26;;;;;;;44.07;22.57;;;-4.70;43.10;;;;;;8396876;28;20215;-63
2024/01/21 18:34:27;;;;;;;32.63;18.50;;;-4.70;65.30;;;;;;8398624;28;20198;-63
2024/01/21 18:38:28;;;;;;;34.60;16.93;;;-4.70;74.80;;;;;;8397188;28;20196;-63
2024/01/21 18:42:28;;;;;;;34.67;16.33;;;-4.70;79.60;;;;;;8394946;28;20195;-63
2024/01/21 18:46:29;;;;;;;29.90;14.63;;;-4.70;86.80;;;;;;8397381;28;20255;-64
2024/01/21 18:50:31;;;;;;;32.20;14.93;;;-4.60;91.10;;;;;;8400250;28;20189;-64
2024/01/21 18:54:38;;;;;;;28.00;12.23;;;-4.40;67.50;;;;;;8394221;28;20191;-64
2024/01/21 18:58:39;;;;;;;32.50;14.53;;;-4.20;53.20;;;;;;8395693;28;20234;-65
2024/01/21 19:02:40;;;;;;;28.13;13.20;;;-4.10;8.40;;;;;;8399936;28;20186;-64
2024/01/21 19:06:41;;;;;;;27.27;13.30;;;-3.90;1.00;;;;;;8398189;28;20222;-65
2024/01/21 19:10:42;;;;;;;26.57;12.13;;;-3.80;1.00;;;;;;8392209;28;20189;-65
2024/01/21 19:14:43;;;;;;;30.33;12.17;;;-3.80;1.00;;;;;;8392589;28;20212;-65
2024/01/21 19:18:44;;;;;;;27.20;13.07;;;-3.80;1.00;;;;;;8389328;28;20177;-65
2024/01/21 19:22:44;;;;;;;33.23;15.80;;;-4.00;1.00;;;;;;8400069;28;20189;-64
2024/01/21 19:26:46;;;;;;;35.53;15.33;;;-4.30;1.00;;;;;;8390975;28;20189;-66
2024/01/21 19:30:47;;;;;;;36.43;18.13;;;-4.50;1.00;;;;;;8394271;28;20200;-65
2024/01/21 19:34:47;;;;;;;30.97;14.63;;;-4.60;1.00;;;;;;8394492;28;20209;-65
2024/01/21 19:38:49;;;;;;;26.70;11.83;;;-4.60;1.00;;;;;;8390944;28;20190;-65
2024/01/21 19:42:50;;;;;;;19.87;10.90;;;-4.40;1.00;;;;;;8394382;28;20189;-65
2024/01/21 19:46:50;;;;;;;25.73;11.20;;;-4.30;1.00;;;;;;8392894;28;20542;-65
2024/01/21 19:50:51;;;;;;;20.17;10.80;;;-4.20;1.00;;;;;;8394404;28;20189;-65
2024/01/21 19:54:55;;;;;;;19.17;9.27;;;-4.30;1.00;;;;;;8394789;28;20297;-65
2024/01/21 19:58:56;;;;;;;19.37;9.63;;;-4.40;1.00;;;;;;8392103;28;20303;-66
2024/01/21 20:02:57;;;;;;;21.07;9.73;;;-4.40;1.00;;;;;;8391210;28;20402;-65
2024/01/21 20:06:58;;;;;;;18.50;7.77;;;-4.50;1.00;;;;;;8389835;28;20189;-66
2024/01/21 20:10:58;;;;;;;14.47;7.00;;;-4.50;1.00;;;;;;8396045;28;20180;-66
2024/01/21 20:15:02;;;;;;;10.73;5.33;;;-4.30;1.00;;;;;;8400382;28;20484;-64
2024/01/21 20:19:03;;;;;;;9.50;4.67;;;-4.20;1.00;;;;;;8405171;28;20299;-65
2024/01/21 20:23:05;;;;;;;10.20;4.00;;;-3.90;1.00;;;;;;8420220;28;20180;-64
2024/01/21 20:27:05;;;;;;;6.43;4.10;;;-3.70;1.00;;;;;;8410599;28;20218;-66
2024/01/21 20:31:06;;;;;;;7.07;3.53;;;-3.40;1.00;;;;;;8408583;28;20194;-65
2024/01/21 20:35:08;;;;;;;8.07;3.80;;;-3.10;1.00;;;;;;8403235;28;20210;-62
2024/01/21 20:39:09;;;;;;;7.13;3.97;;;-2.70;1.00;;;;;;8403396;28;20184;-64
2024/01/21 20:43:10;;;;;;;6.97;4.27;;;-2.40;1.00;;;;;;8405279;28;20187;-64
2024/01/21 20:47:12;;;;;;;8.43;4.27;;;-2.10;1.00;;;;;;8407565;28;20187;-65
2024/01/21 20:51:13;;;;;;;8.33;3.87;;;-1.80;1.00;;;;;;8408883;28;20233;-64